sensor_id;sensor_type;location;lat;lon;timestamp;P1;durP1;ratioP1;P2;durP2;ratioP2
66663;SDS011;59683;51.428;-1.994;2023-02-05T02:31:09;11.25;;;1.73;;
66663;SDS011;59683;51.428;-1.994;2023-02-05T02:33:41;19.48;;;2.60;;
66663;SDS011;59683;51.428;-1.994;2023-02-05T02:36:12;11.48;;;2.03;;
66663;SDS011;59683;51.428;-1.994;2023-02-05T02:38:44;12.80;;;1.67;;
66663;SDS011;59683;51.428;-1.994;2023-02-05T02:41:20;13.75;;;3.63;;
66663;SDS011;59683;51.428;-1.994;2023-02-05T02:44:04;17.25;;;1.90;;
66663;SDS011;59683;51.428;-1.994;2023-02-05T02:46:39;11.88;;;2.08;;
66663;SDS011;59683;51.428;-1.994;2023-02-05T03:07:48;14.55;;;2.20;;
66663;SDS011;59683;51.428;-1.994;2023-02-05T03:10:21;14.20;;;3.45;;
66663;SDS011;59683;51.428;-1.994;2023-02-05T03:12:48;18.50;;;2.53;;
66663;SDS011;59683;51.428;-1.994;2023-02-05T03:15:14;17.43;;;2.53;;
66663;SDS011;59683;51.428;-1.994;2023-02-05T03:17:39;16.43;;;3.17;;
66663;SDS011;59683;51.428;-1.994;2023-02-05T03:20:27;17.77;;;2.42;;
66663;SDS011;59683;51.428;-1.994;2023-02-05T03:25:22;22.97;;;4.13;;
66663;SDS011;59683;51.428;-1.994;2023-02-05T03:27:51;12.50;;;2.20;;
66663;SDS011;59683;51.428;-1.994;2023-02-05T03:30:22;12.77;;;2.33;;
66663;SDS011;59683;51.428;-1.994;2023-02-05T03:35:56;25.52;;;3.83;;
66663;SDS011;59683;51.428;-1.994;2023-02-05T03:38:44;18.27;;;3.17;;
66663;SDS011;59683;51.428;-1.994;2023-02-05T03:47:20;28.25;;;3.80;;
66663;SDS011;59683;51.428;-1.994;2023-02-05T03:50:13;15.63;;;2.30;;
66663;SDS011;59683;51.428;-1.994;2023-02-05T03:52:54;28.52;;;3.80;;
66663;SDS011;59683;51.428;-1.994;2023-02-05T03:55:29;35.88;;;4.97;;
66663;SDS011;59683;51.428;-1.994;2023-02-05T04:00:56;25.33;;;2.95;;
66663;SDS011;59683;51.428;-1.994;2023-02-05T04:03:22;20.25;;;2.97;;
66663;SDS011;59683;51.428;-1.994;2023-02-05T04:05:51;18.30;;;3.00;;
66663;SDS011;59683;51.428;-1.994;2023-02-05T04:08:18;22.63;;;4.68;;
66663;SDS011;59683;51.428;-1.994;2023-02-05T04:10:49;25.38;;;2.75;;
66663;SDS011;59683;51.428;-1.994;2023-02-05T04:13:15;21.43;;;3.40;;
66663;SDS011;59683;51.428;-1.994;2023-02-05T04:15:41;22.53;;;4.03;;
66663;SDS011;59683;51.428;-1.994;2023-02-05T04:18:07;16.60;;;2.63;;
66663;SDS011;59683;51.428;-1.994;2023-02-05T04:20:33;17.27;;;2.17;;
66663;SDS011;59683;51.428;-1.994;2023-02-05T04:25:35;20.88;;;2.45;;
66663;SDS011;59683;51.428;-1.994;2023-02-05T04:28:02;24.48;;;3.78;;
66663;SDS011;59683;51.428;-1.994;2023-02-05T04:30:29;21.65;;;2.78;;
66663;SDS011;59683;51.428;-1.994;2023-02-05T04:32:56;19.02;;;2.53;;
66663;SDS011;59683;51.428;-1.994;2023-02-05T04:35:22;16.53;;;2.50;;
66663;SDS011;59683;51.428;-1.994;2023-02-05T04:37:48;20.27;;;2.57;;
66663;SDS011;59683;51.428;-1.994;2023-02-05T04:54:19;15.80;;;2.13;;
66663;SDS011;59683;51.428;-1.994;2023-02-05T04:56:46;26.70;;;3.83;;
66663;SDS011;59683;51.428;-1.994;2023-02-05T04:59:11;21.25;;;3.50;;
66663;SDS011;59683;51.428;-1.994;2023-02-05T05:01:38;36.37;;;5.10;;
66663;SDS011;59683;51.428;-1.994;2023-02-05T05:04:04;23.88;;;3.50;;
66663;SDS011;59683;51.428;-1.994;2023-02-05T05:06:30;24.13;;;3.70;;
66663;SDS011;59683;51.428;-1.994;2023-02-05T05:08:58;19.80;;;2.93;;
66663;SDS011;59683;51.428;-1.994;2023-02-05T05:11:25;33.13;;;4.75;;
66663;SDS011;59683;51.428;-1.994;2023-02-05T05:16:26;20.90;;;3.35;;
66663;SDS011;59683;51.428;-1.994;2023-02-05T05:18:51;30.23;;;4.60;;
66663;SDS011;59683;51.428;-1.994;2023-02-05T05:21:23;26.42;;;4.05;;
66663;SDS011;59683;51.428;-1.994;2023-02-05T05:23:49;25.10;;;5.13;;
66663;SDS011;59683;51.428;-1.994;2023-02-05T05:26:15;23.70;;;3.57;;
66663;SDS011;59683;51.428;-1.994;2023-02-05T05:28:54;31.27;;;4.53;;
66663;SDS011;59683;51.428;-1.994;2023-02-05T05:31:36;28.55;;;3.80;;
66663;SDS011;59683;51.428;-1.994;2023-02-05T05:34:03;18.30;;;4.10;;
66663;SDS011;59683;51.428;-1.994;2023-02-05T05:39:20;19.88;;;3.58;;
66663;SDS011;59683;51.428;-1.994;2023-02-05T05:42:13;26.77;;;5.22;;
66663;SDS011;59683;51.428;-1.994;2023-02-05T05:45:11;30.52;;;3.53;;
66663;SDS011;59683;51.428;-1.994;2023-02-05T05:52:53;23.15;;;3.75;;
66663;SDS011;59683;51.428;-1.994;2023-02-05T05:57:58;22.35;;;3.42;;
66663;SDS011;59683;51.428;-1.994;2023-02-05T06:00:25;25.65;;;3.50;;
66663;SDS011;59683;51.428;-1.994;2023-02-05T06:18:25;20.05;;;3.50;;
66663;SDS011;59683;51.428;-1.994;2023-02-05T07:02:20;24.92;;;3.60;;
66663;SDS011;59683;51.428;-1.994;2023-02-05T07:49:03;26.73;;;4.90;;
66663;SDS011;59683;51.428;-1.994;2023-02-05T07:54:07;22.95;;;5.40;;
66663;SDS011;59683;51.428;-1.994;2023-02-05T08:25:06;29.98;;;5.90;;
66663;SDS011;59683;51.428;-1.994;2023-02-05T08:27:40;28.35;;;5.47;;
66663;SDS011;59683;51.428;-1.994;2023-02-05T08:30:12;24.10;;;4.53;;
66663;SDS011;59683;51.428;-1.994;2023-02-05T08:43:07;29.17;;;5.88;;
66663;SDS011;59683;51.428;-1.994;2023-02-05T09:01:12;35.22;;;6.28;;
66663;SDS011;59683;51.428;-1.994;2023-02-05T09:04:19;37.88;;;7.78;;
66663;SDS011;59683;51.428;-1.994;2023-02-05T09:13:33;45.47;;;8.30;;
66663;SDS011;59683;51.428;-1.994;2023-02-05T09:16:00;35.03;;;6.75;;
66663;SDS011;59683;51.428;-1.994;2023-02-05T09:18:26;35.45;;;6.78;;
66663;SDS011;59683;51.428;-1.994;2023-02-05T09:20:53;36.65;;;6.32;;
66663;SDS011;59683;51.428;-1.994;2023-02-05T09:25:56;36.55;;;7.10;;
66663;SDS011;59683;51.428;-1.994;2023-02-05T09:58:18;18.90;;;2.67;;
66663;SDS011;59683;51.428;-1.994;2023-02-05T10:00:58;11.43;;;1.77;;
66663;SDS011;59683;51.428;-1.994;2023-02-05T12:44:16;13.63;;;1.70;;
66663;SDS011;59683;51.428;-1.994;2023-02-05T12:47:18;10.47;;;1.73;;
66663;SDS011;59683;51.428;-1.994;2023-02-05T12:57:52;9.47;;;2.53;;
66663;SDS011;59683;51.428;-1.994;2023-02-05T13:00:22;11.18;;;1.58;;
66663;SDS011;59683;51.428;-1.994;2023-02-05T13:05:51;10.43;;;1.73;;
66663;SDS011;59683;51.428;-1.994;2023-02-05T13:08:25;22.53;;;2.33;;
66663;SDS011;59683;51.428;-1.994;2023-02-05T13:11:04;12.30;;;1.77;;
66663;SDS011;59683;51.428;-1.994;2023-02-05T13:13:45;9.07;;;1.90;;
66663;SDS011;59683;51.428;-1.994;2023-02-05T13:16:16;8.43;;;1.43;;
66663;SDS011;59683;51.428;-1.994;2023-02-05T13:19:00;5.53;;;1.10;;
66663;SDS011;59683;51.428;-1.994;2023-02-05T13:21:32;7.93;;;1.47;;
66663;SDS011;59683;51.428;-1.994;2023-02-05T13:24:22;10.23;;;1.33;;
66663;SDS011;59683;51.428;-1.994;2023-02-05T13:27:22;9.40;;;2.23;;
66663;SDS011;59683;51.428;-1.994;2023-02-05T13:30:29;10.40;;;1.87;;
66663;SDS011;59683;51.428;-1.994;2023-02-05T13:33:00;7.23;;;1.73;;
66663;SDS011;59683;51.428;-1.994;2023-02-05T13:35:30;8.15;;;1.42;;
66663;SDS011;59683;51.428;-1.994;2023-02-05T13:50:05;15.03;;;1.80;;
66663;SDS011;59683;51.428;-1.994;2023-02-05T14:00:59;7.67;;;1.30;;
66663;SDS011;59683;51.428;-1.994;2023-02-05T14:03:33;11.70;;;1.50;;
66663;SDS011;59683;51.428;-1.994;2023-02-05T14:06:21;11.23;;;1.83;;
66663;SDS011;59683;51.428;-1.994;2023-02-05T14:09:06;8.50;;;1.45;;
66663;SDS011;59683;51.428;-1.994;2023-02-05T14:12:09;6.97;;;1.00;;
66663;SDS011;59683;51.428;-1.994;2023-02-05T14:14:38;9.43;;;1.47;;
66663;SDS011;59683;51.428;-1.994;2023-02-05T14:19:55;9.73;;;1.53;;
66663;SDS011;59683;51.428;-1.994;2023-02-05T14:28:21;8.27;;;1.20;;
66663;SDS011;59683;51.428;-1.994;2023-02-05T14:30:54;11.60;;;1.40;;
66663;SDS011;59683;51.428;-1.994;2023-02-05T14:33:41;11.10;;;1.63;;
66663;SDS011;59683;51.428;-1.994;2023-02-05T14:38:40;6.40;;;1.50;;
66663;SDS011;59683;51.428;-1.994;2023-02-05T14:41:16;11.20;;;1.90;;
66663;SDS011;59683;51.428;-1.994;2023-02-05T14:43:45;9.70;;;1.70;;
66663;SDS011;59683;51.428;-1.994;2023-02-05T14:46:31;8.10;;;1.30;;
66663;SDS011;59683;51.428;-1.994;2023-02-05T14:49:02;10.07;;;3.53;;
66663;SDS011;59683;51.428;-1.994;2023-02-05T14:51:37;12.37;;;2.43;;
66663;SDS011;59683;51.428;-1.994;2023-02-05T14:54:06;8.60;;;1.23;;
66663;SDS011;59683;51.428;-1.994;2023-02-05T14:56:42;10.80;;;2.87;;
66663;SDS011;59683;51.428;-1.994;2023-02-05T14:59:20;6.03;;;1.85;;
66663;SDS011;59683;51.428;-1.994;2023-02-05T15:01:47;9.23;;;1.97;;
66663;SDS011;59683;51.428;-1.994;2023-02-05T15:04:19;11.77;;;1.67;;
66663;SDS011;59683;51.428;-1.994;2023-02-05T15:06:47;10.30;;;2.25;;
66663;SDS011;59683;51.428;-1.994;2023-02-05T15:14:39;15.80;;;4.03;;
66663;SDS011;59683;51.428;-1.994;2023-02-05T15:22:08;11.57;;;2.47;;
66663;SDS011;59683;51.428;-1.994;2023-02-05T15:24:47;6.35;;;1.70;;
66663;SDS011;59683;51.428;-1.994;2023-02-05T15:27:18;12.68;;;1.67;;
66663;SDS011;59683;51.428;-1.994;2023-02-05T15:29:47;11.43;;;2.28;;
66663;SDS011;59683;51.428;-1.994;2023-02-05T15:32:53;11.00;;;1.80;;
66663;SDS011;59683;51.428;-1.994;2023-02-05T15:35:29;13.13;;;1.40;;
66663;SDS011;59683;51.428;-1.994;2023-02-05T15:37:57;6.90;;;1.10;;
66663;SDS011;59683;51.428;-1.994;2023-02-05T15:42:58;8.73;;;1.45;;
66663;SDS011;59683;51.428;-1.994;2023-02-05T15:45:33;10.00;;;1.35;;
66663;SDS011;59683;51.428;-1.994;2023-02-05T15:50:33;12.05;;;1.55;;
66663;SDS011;59683;51.428;-1.994;2023-02-05T15:53:00;7.55;;;1.20;;
66663;SDS011;59683;51.428;-1.994;2023-02-05T15:55:27;8.27;;;1.40;;
66663;SDS011;59683;51.428;-1.994;2023-02-05T15:57:58;7.70;;;2.33;;
66663;SDS011;59683;51.428;-1.994;2023-02-05T16:00:29;8.93;;;1.35;;
66663;SDS011;59683;51.428;-1.994;2023-02-05T16:02:57;9.45;;;1.73;;
66663;SDS011;59683;51.428;-1.994;2023-02-05T16:05:27;9.25;;;1.35;;
66663;SDS011;59683;51.428;-1.994;2023-02-05T16:07:54;11.80;;;1.95;;
66663;SDS011;59683;51.428;-1.994;2023-02-05T16:10:28;7.10;;;1.90;;
66663;SDS011;59683;51.428;-1.994;2023-02-05T16:13:02;7.45;;;1.38;;
66663;SDS011;59683;51.428;-1.994;2023-02-05T16:15:35;13.57;;;3.42;;
66663;SDS011;59683;51.428;-1.994;2023-02-05T16:18:05;12.10;;;1.73;;
66663;SDS011;59683;51.428;-1.994;2023-02-05T16:20:41;11.68;;;1.90;;
66663;SDS011;59683;51.428;-1.994;2023-02-05T16:23:17;10.52;;;1.45;;
66663;SDS011;59683;51.428;-1.994;2023-02-05T16:25:54;10.60;;;1.70;;
66663;SDS011;59683;51.428;-1.994;2023-02-05T16:28:27;10.65;;;2.03;;
66663;SDS011;59683;51.428;-1.994;2023-02-05T16:31:00;9.13;;;1.88;;
66663;SDS011;59683;51.428;-1.994;2023-02-05T16:33:37;11.57;;;2.67;;
66663;SDS011;59683;51.428;-1.994;2023-02-05T16:36:16;18.30;;;5.43;;
66663;SDS011;59683;51.428;-1.994;2023-02-05T16:38:55;20.90;;;7.22;;
66663;SDS011;59683;51.428;-1.994;2023-02-05T16:41:30;11.00;;;2.58;;
66663;SDS011;59683;51.428;-1.994;2023-02-05T16:44:00;22.10;;;4.25;;
66663;SDS011;59683;51.428;-1.994;2023-02-05T16:46:30;24.02;;;6.05;;
66663;SDS011;59683;51.428;-1.994;2023-02-05T16:49:40;15.90;;;4.07;;
66663;SDS011;59683;51.428;-1.994;2023-02-05T16:51:52;13.55;;;4.57;;
66663;SDS011;59683;51.428;-1.994;2023-02-05T17:02:36;11.45;;;2.67;;
66663;SDS011;59683;51.428;-1.994;2023-02-05T17:05:07;20.88;;;4.68;;
66663;SDS011;59683;51.428;-1.994;2023-02-05T17:07:51;9.45;;;3.28;;
66663;SDS011;59683;51.428;-1.994;2023-02-05T17:10:46;22.92;;;5.18;;
66663;SDS011;59683;51.428;-1.994;2023-02-05T17:13:25;14.90;;;3.70;;
66663;SDS011;59683;51.428;-1.994;2023-02-05T17:16:30;12.50;;;4.18;;
66663;SDS011;59683;51.428;-1.994;2023-02-05T17:21:25;11.67;;;2.43;;
66663;SDS011;59683;51.428;-1.994;2023-02-05T17:24:01;6.22;;;2.28;;
66663;SDS011;59683;51.428;-1.994;2023-02-05T17:26:35;8.27;;;2.78;;
66663;SDS011;59683;51.428;-1.994;2023-02-05T17:29:20;8.48;;;2.88;;
66663;SDS011;59683;51.428;-1.994;2023-02-05T17:31:47;8.00;;;2.60;;
66663;SDS011;59683;51.428;-1.994;2023-02-05T17:34:14;8.43;;;2.67;;
66663;SDS011;59683;51.428;-1.994;2023-02-05T19:20:49;29.05;;;12.18;;
66663;SDS011;59683;51.428;-1.994;2023-02-05T19:23:17;30.67;;;12.55;;
66663;SDS011;59683;51.428;-1.994;2023-02-05T19:25:43;28.00;;;13.60;;
66663;SDS011;59683;51.428;-1.994;2023-02-05T20:30:56;49.40;;;22.95;;
66663;SDS011;59683;51.428;-1.994;2023-02-05T21:02:28;53.70;;;20.80;;
66663;SDS011;59683;51.428;-1.994;2023-02-05T22:30:43;34.25;;;14.15;;
66663;SDS011;59683;51.428;-1.994;2023-02-05T22:51:40;53.03;;;20.92;;
66663;SDS011;59683;51.428;-1.994;2023-02-05T22:54:06;38.33;;;17.92;;
66663;SDS011;59683;51.428;-1.994;2023-02-05T22:56:40;40.28;;;17.17;;
66663;SDS011;59683;51.428;-1.994;2023-02-05T23:45:46;46.42;;;18.98;;
66663;SDS011;59683;51.428;-1.994;2023-02-05T23:48:14;51.92;;;19.17;;
66663;SDS011;59683;51.428;-1.994;2023-02-05T23:51:02;42.20;;;16.13;;
